Etusivu
METAR-TAF:

METAR-TAF

Lentoasemat :

New Braunfels Municipal Airport

New Braunfels, Texas, Yhdysvallat

Leveyspiiri: 29-42-31N, Pituuspiiri: 098-02-43W, korkeus merenpinnasta: 197 m

Tämänhetkinen sää

Tämä raportti tehtiin 33 minuuttia sitten, kello 15.51 UTC
Tuuli 19 kn pohjoisesta/koillisesta puuskistuen 27 kn:hen
Lämpötila 12°C
Kosteus 67%
Ilmanpaine 1021 hPa
Näkyvyys: 16.1 km
Hajanaisia pilviä 2200 ft:n korkeudessa
Pilvistä 3400 ft:n korkeudessa

METAR: KBAZ 011551Z 02019G27KT 10SM SCT022 OVC034 12/06 A3014 RMK AO2 PK WND 03032/1510 SLP200 T01170056

Aika: 10:24 (16:24 UTC)


TAF: puuttuu

Säähavainnot ja -ennusteet yli 4000 lentoasemalta (METAR- ja TAF-raportit).

Käytössä olevat sääasemat on merkitty karttaan keltaisilla ja punaisilla pisteillä.

Aseta hiiri pisteen päälle nähdäksesi sääaseman nimen.

Klikkaa sitten nähdäksesi säähavainnot ja -ennusteet.

Kartan vaihtaminen: klikkaa mustalla rastilla varustettuja vihreitä pisteitä, niin voit zoomata sisään; viivalla varustettua vihreää pistettä, niin voit zoomata ulos tai vihreitä nuolia, niin pääset viereisille kartoille.


METAR-TAF: